Time;durP1;ratioP1;P1;durP2;ratioP2;P2;SDS_P1;SDS_P2;PMS_P1;PMS_P2;Temp;Humidity;BMP_temperature;BMP_pressure;BME280_temperature;BME280_humidity;BME280_pressure;Samples;Min_cycle;Max_cycle;Signal;HPM_P1;HPM_P2
2021/07/22 00:00:00;;;;;;;13.13;7.77;;;19.00;67.70;;;;;;4927210;29;20962;-40
2021/07/22 00:02:32;;;;;;;11.10;7.00;;;19.00;68.00;;;;;;4927574;29;20485;-43
2021/07/22 00:05:00;;;;;;;17.07;6.73;;;19.00;68.20;;;;;;4929598;29;20475;-43
2021/07/22 00:07:26;;;;;;;13.73;6.87;;;18.90;68.40;;;;;;4922527;29;20463;-41
2021/07/22 00:09:53;;;;;;;7.80;6.30;;;18.90;68.50;;;;;;4927644;29;20466;-40
2021/07/22 00:12:20;;;;;;;9.47;6.17;;;18.90;68.60;;;;;;4921629;29;20524;-41
2021/07/22 00:14:46;;;;;;;13.47;7.97;;;18.80;68.60;;;;;;4925891;29;20551;-41
2021/07/22 00:17:13;;;;;;;13.53;6.37;;;18.80;68.70;;;;;;4926983;29;20475;-39
2021/07/22 00:19:41;;;;;;;8.37;7.50;;;18.80;68.70;;;;;;4925311;29;20464;-42
2021/07/22 00:22:08;;;;;;;8.43;5.90;;;18.80;68.40;;;;;;4923969;29;20563;-41
2021/07/22 00:24:36;;;;;;;6.70;5.83;;;18.70;68.70;;;;;;4924061;29;20462;-43
2021/07/22 00:27:03;;;;;;;9.43;6.37;;;18.70;68.90;;;;;;4926318;29;20559;-41
2021/07/22 00:29:33;;;;;;;6.67;5.80;;;18.60;68.90;;;;;;4926973;29;20503;-39
2021/07/22 00:32:01;;;;;;;8.90;6.70;;;18.60;69.20;;;;;;4923457;29;20528;-40
2021/07/22 00:34:28;;;;;;;7.77;5.70;;;18.60;69.40;;;;;;4924719;29;20466;-40
2021/07/22 00:36:54;;;;;;;7.27;5.87;;;18.60;69.50;;;;;;4926782;28;20459;-40
2021/07/22 00:39:21;;;;;;;13.83;7.00;;;18.60;69.30;;;;;;4925934;29;20466;-40
2021/07/22 00:41:48;;;;;;;8.43;6.97;;;18.50;69.20;;;;;;4921314;29;20515;-41
2021/07/22 00:44:15;;;;;;;6.73;5.10;;;18.50;69.10;;;;;;4923019;29;20544;-40
2021/07/22 00:46:41;;;;;;;6.80;5.40;;;18.50;69.20;;;;;;4925270;29;20559;-39
2021/07/22 00:49:12;;;;;;;6.90;6.00;;;18.40;69.50;;;;;;4920731;29;21012;-39
2021/07/22 00:51:39;;;;;;;7.53;6.23;;;18.40;69.60;;;;;;4923082;29;20501;-40
2021/07/22 00:54:06;;;;;;;7.87;6.17;;;18.40;69.50;;;;;;4924034;29;20495;-40
2021/07/22 00:56:34;;;;;;;8.20;5.80;;;18.30;69.70;;;;;;4926788;29;20559;-39
2021/07/22 00:59:01;;;;;;;8.87;6.20;;;18.30;69.80;;;;;;4911515;29;20491;-40
2021/07/22 01:01:31;;;;;;;7.40;5.40;;;18.30;69.90;;;;;;4923477;29;20465;-39
2021/07/22 01:03:58;;;;;;;8.50;5.57;;;18.20;70.00;;;;;;4922564;29;20468;-40
2021/07/22 01:06:25;;;;;;;9.10;5.77;;;18.20;70.10;;;;;;4922327;29;20488;-42
2021/07/22 01:08:52;;;;;;;8.77;6.10;;;18.20;70.20;;;;;;4923586;29;20544;-40
2021/07/22 01:11:19;;;;;;;7.00;5.17;;;18.20;70.40;;;;;;4922172;29;20533;-43
2021/07/22 01:13:46;;;;;;;9.47;5.93;;;18.20;70.40;;;;;;4922788;29;20947;-42
2021/07/22 01:16:13;;;;;;;8.43;5.50;;;18.20;70.50;;;;;;4918445;29;20475;-40
2021/07/22 01:18:40;;;;;;;7.53;6.17;;;18.20;70.60;;;;;;4923212;28;20466;-39
2021/07/22 01:21:11;;;;;;;7.53;6.30;;;18.10;70.50;;;;;;4922686;29;20473;-41
2021/07/22 01:23:37;;;;;;;8.63;6.40;;;18.10;70.50;;;;;;4923483;29;20742;-39
2021/07/22 01:26:04;;;;;;;8.37;5.77;;;18.00;70.60;;;;;;4926243;29;20575;-41
2021/07/22 01:28:31;;;;;;;9.07;6.27;;;18.00;70.50;;;;;;4923395;29;20500;-40
2021/07/22 01:30:58;;;;;;;8.10;6.03;;;18.00;70.60;;;;;;4923052;29;20550;-40
2021/07/22 01:33:25;;;;;;;8.30;6.20;;;18.00;70.80;;;;;;4926226;29;20524;-39
2021/07/22 01:35:52;;;;;;;7.40;6.20;;;18.00;70.90;;;;;;4925013;29;20843;-41
2021/07/22 01:38:19;;;;;;;7.40;6.13;;;18.00;71.10;;;;;;4925146;29;20496;-41
2021/07/22 01:40:46;;;;;;;7.60;5.97;;;17.90;71.00;;;;;;4926445;29;21293;-41
2021/07/22 01:43:13;;;;;;;6.43;5.10;;;17.90;71.30;;;;;;4927436;29;20518;-42
2021/07/22 01:45:40;;;;;;;7.20;5.63;;;17.90;71.30;;;;;;4924048;29;20549;-41
2021/07/22 01:48:06;;;;;;;6.53;5.60;;;17.80;71.30;;;;;;4922482;29;20552;-40
2021/07/22 01:50:33;;;;;;;10.50;6.37;;;17.80;71.30;;;;;;4924026;29;20962;-39
2021/07/22 01:53:04;;;;;;;7.80;6.20;;;17.80;71.40;;;;;;4928042;29;20898;-40
2021/07/22 01:55:31;;;;;;;5.97;5.37;;;17.80;71.50;;;;;;4924362;29;20468;-39
2021/07/22 01:58:00;;;;;;;7.13;6.00;;;17.70;71.60;;;;;;4921163;29;20833;-39
2021/07/22 02:00:28;;;;;;;7.63;5.43;;;17.70;71.70;;;;;;4923754;29;21247;-38
2021/07/22 02:02:54;;;;;;;9.13;6.70;;;17.70;71.80;;;;;;4922276;29;20548;-42
2021/07/22 02:05:21;;;;;;;7.37;5.93;;;17.60;72.10;;;;;;4921231;29;20484;-40
2021/07/22 02:07:48;;;;;;;9.27;6.20;;;17.60;72.00;;;;;;4921742;29;20469;-41
2021/07/22 02:10:17;;;;;;;9.33;5.93;;;17.60;72.00;;;;;;4926133;29;20480;-40
2021/07/22 02:12:44;;;;;;;9.90;6.07;;;17.50;72.20;;;;;;4919610;29;20507;-41
2021/07/22 02:15:11;;;;;;;7.73;5.20;;;17.50;72.20;;;;;;4926464;29;20551;-39
2021/07/22 02:17:38;;;;;;;7.30;6.20;;;17.50;72.20;;;;;;4928305;29;20486;-40
2021/07/22 02:20:05;;;;;;;7.20;5.67;;;17.50;72.30;;;;;;4927239;29;20467;-39
2021/07/22 02:22:32;;;;;;;7.93;5.87;;;17.40;72.30;;;;;;4921699;29;21006;-40
2021/07/22 02:24:59;;;;;;;8.40;6.00;;;17.40;72.40;;;;;;4921930;29;20983;-42
2021/07/22 02:27:26;;;;;;;9.27;5.67;;;17.40;72.50;;;;;;4921296;29;20503;-40
2021/07/22 02:29:53;;;;;;;8.00;6.23;;;17.40;72.60;;;;;;4922223;29;20468;-43
2021/07/22 02:32:19;;;;;;;6.60;5.63;;;17.40;72.50;;;;;;4923680;29;20488;-39
2021/07/22 02:34:46;;;;;;;6.60;5.37;;;17.30;72.70;;;;;;4919265;29;20962;-39
2021/07/22 02:37:13;;;;;;;10.73;6.47;;;17.30;72.70;;;;;;4920907;29;20550;-40
2021/07/22 02:39:40;;;;;;;8.67;5.60;;;17.30;72.70;;;;;;4927918;29;20465;-40
2021/07/22 02:42:07;;;;;;;9.00;5.83;;;17.30;72.80;;;;;;4920577;29;20504;-39
2021/07/22 02:44:39;;;;;;;7.60;5.47;;;17.20;72.90;;;;;;4920188;29;20481;-39
2021/07/22 02:47:10;;;;;;;6.77;5.60;;;17.20;73.20;;;;;;4923124;29;20543;-39
2021/07/22 02:49:37;;;;;;;8.27;5.83;;;17.20;73.20;;;;;;4927668;29;20516;-39
2021/07/22 02:52:06;;;;;;;8.30;5.90;;;17.20;73.10;;;;;;4921616;29;20468;-39
2021/07/22 02:54:32;;;;;;;11.40;6.20;;;17.20;73.20;;;;;;4920423;29;20969;-39
2021/07/22 02:56:59;;;;;;;7.37;5.73;;;17.20;73.30;;;;;;4922279;29;20441;-39
2021/07/22 02:59:26;;;;;;;8.10;5.70;;;17.20;73.30;;;;;;4924159;29;20474;-39
2021/07/22 03:01:53;;;;;;;8.40;6.53;;;17.10;73.20;;;;;;4922906;29;20469;-41
2021/07/22 03:04:20;;;;;;;7.27;5.40;;;17.10;73.20;;;;;;4924851;29;20507;-39
2021/07/22 03:06:47;;;;;;;8.83;5.70;;;17.10;73.50;;;;;;4923440;29;20464;-39
2021/07/22 03:09:14;;;;;;;9.17;5.40;;;17.10;73.60;;;;;;4927231;29;20572;-39
2021/07/22 03:11:41;;;;;;;9.30;5.90;;;17.10;73.50;;;;;;4923767;29;20464;-41
2021/07/22 03:14:08;;;;;;;8.23;6.10;;;17.10;73.60;;;;;;4922762;29;20569;-39
2021/07/22 03:16:35;;;;;;;7.33;5.70;;;17.00;73.60;;;;;;4925667;29;20465;-38
2021/07/22 03:19:02;;;;;;;11.13;5.87;;;17.00;73.70;;;;;;4924221;29;20472;-40
2021/07/22 03:21:29;;;;;;;8.00;6.13;;;17.00;73.80;;;;;;4920456;29;20460;-39
2021/07/22 03:23:55;;;;;;;8.70;5.57;;;17.00;73.80;;;;;;4919587;29;20464;-39
2021/07/22 03:26:22;;;;;;;7.73;6.37;;;16.90;74.00;;;;;;4923692;29;20552;-40
2021/07/22 03:28:49;;;;;;;7.57;6.37;;;16.90;74.10;;;;;;4919910;29;20491;-41
2021/07/22 03:31:16;;;;;;;10.93;6.20;;;16.90;74.20;;;;;;4922890;29;20551;-39
2021/07/22 03:33:43;;;;;;;10.10;5.40;;;16.90;74.40;;;;;;4920252;29;20670;-40
2021/07/22 03:36:09;;;;;;;8.93;6.47;;;16.90;74.60;;;;;;4920567;29;20464;-39
2021/07/22 03:38:36;;;;;;;7.77;6.70;;;16.80;74.70;;;;;;4920704;29;20520;-39
2021/07/22 03:41:03;;;;;;;7.50;5.37;;;16.80;74.60;;;;;;4924120;29;20491;-39
2021/07/22 03:43:30;;;;;;;11.17;7.20;;;16.80;74.70;;;;;;4926805;29;21177;-39
2021/07/22 03:46:00;;;;;;;6.47;5.20;;;16.80;74.60;;;;;;4920930;29;20964;-39
2021/07/22 03:48:27;;;;;;;7.77;6.10;;;16.80;74.70;;;;;;4918439;29;20487;-39
2021/07/22 03:50:54;;;;;;;8.23;6.00;;;16.70;74.70;;;;;;4925847;29;20551;-39
2021/07/22 03:53:21;;;;;;;6.63;5.37;;;16.70;74.80;;;;;;4921416;29;20496;-39
2021/07/22 03:55:48;;;;;;;9.63;5.90;;;16.70;74.80;;;;;;4925106;29;20453;-39
2021/07/22 03:58:15;;;;;;;10.97;6.20;;;16.70;74.90;;;;;;4920173;29;20496;-38
2021/07/22 04:00:42;;;;;;;7.57;5.77;;;16.70;75.10;;;;;;4922972;29;20460;-38
2021/07/22 04:03:09;;;;;;;9.23;7.03;;;16.70;75.10;;;;;;4921636;29;20465;-39
2021/07/22 04:05:36;;;;;;;8.37;6.07;;;16.70;75.10;;;;;;4917880;29;20468;-38
2021/07/22 04:08:03;;;;;;;8.17;6.37;;;16.70;75.00;;;;;;4918087;29;20769;-40
2021/07/22 04:10:30;;;;;;;7.47;6.60;;;16.70;75.10;;;;;;4919755;28;20487;-41
2021/07/22 04:13:01;;;;;;;10.00;7.13;;;16.70;75.10;;;;;;4920306;29;20912;-40
2021/07/22 04:15:29;;;;;;;8.70;6.77;;;16.70;75.30;;;;;;4926998;29;20467;-41
2021/07/22 04:17:57;;;;;;;7.60;5.53;;;16.70;75.40;;;;;;4930107;29;20471;-39
2021/07/22 04:20:25;;;;;;;10.70;6.63;;;16.70;75.50;;;;;;4926594;29;20468;-40
2021/07/22 04:22:55;;;;;;;8.77;6.00;;;16.70;75.50;;;;;;4923547;29;20985;-39
2021/07/22 04:25:21;;;;;;;9.53;6.90;;;16.70;75.70;;;;;;4927825;29;20550;-39
2021/07/22 04:27:48;;;;;;;9.60;6.23;;;16.70;75.70;;;;;;4926608;29;20464;-39
2021/07/22 04:30:15;;;;;;;8.70;6.27;;;16.80;75.70;;;;;;4922078;29;20908;-41
2021/07/22 04:32:42;;;;;;;9.27;6.17;;;16.80;75.70;;;;;;4924837;29;20987;-40
2021/07/22 04:35:09;;;;;;;9.00;6.47;;;16.80;75.80;;;;;;4926599;29;20560;-41
2021/07/22 04:37:36;;;;;;;8.73;6.37;;;16.80;75.90;;;;;;4927567;29;20524;-41
2021/07/22 04:40:06;;;;;;;7.13;5.60;;;16.80;75.90;;;;;;4923081;29;20479;-41
2021/07/22 04:42:34;;;;;;;11.50;5.90;;;16.90;76.00;;;;;;4923576;29;20465;-40
2021/07/22 04:45:01;;;;;;;7.97;6.30;;;16.90;76.00;;;;;;4927462;29;20452;-39
2021/07/22 04:47:28;;;;;;;7.50;6.57;;;16.90;76.10;;;;;;4922052;29;20455;-39
2021/07/22 04:49:55;;;;;;;8.80;6.73;;;16.90;76.20;;;;;;4921428;29;20484;-39
2021/07/22 04:52:22;;;;;;;8.10;6.43;;;17.00;76.30;;;;;;4924808;29;20795;-40
2021/07/22 04:54:49;;;;;;;8.00;6.97;;;17.00;76.30;;;;;;4927111;29;21015;-41
2021/07/22 04:57:15;;;;;;;9.33;6.00;;;17.00;76.40;;;;;;4924795;29;20475;-39
2021/07/22 04:59:43;;;;;;;9.07;6.70;;;17.00;76.40;;;;;;4921461;29;20457;-39
2021/07/22 05:02:10;;;;;;;8.43;6.30;;;17.10;76.50;;;;;;4924080;28;20466;-39
2021/07/22 05:04:37;;;;;;;9.20;5.90;;;17.10;76.50;;;;;;4927998;29;20555;-39
2021/07/22 05:07:05;;;;;;;11.30;6.37;;;17.20;76.50;;;;;;4925116;29;20559;-38
2021/07/22 05:09:32;;;;;;;10.50;6.70;;;17.20;76.40;;;;;;4925645;29;20460;-39
2021/07/22 05:11:59;;;;;;;9.47;6.83;;;17.30;76.50;;;;;;4925043;29;20994;-39
2021/07/22 05:14:26;;;;;;;8.83;6.53;;;17.30;76.50;;;;;;4920690;29;20575;-40
2021/07/22 05:16:52;;;;;;;11.80;6.07;;;17.40;76.60;;;;;;4923387;29;20559;-41
2021/07/22 05:19:20;;;;;;;10.00;6.97;;;17.40;76.70;;;;;;4924803;29;20482;-40
2021/07/22 05:21:47;;;;;;;11.57;7.50;;;17.50;76.60;;;;;;4923454;29;20466;-39
2021/07/22 05:24:13;;;;;;;10.03;7.30;;;17.50;76.40;;;;;;4923717;29;20464;-39
2021/07/22 05:26:40;;;;;;;11.23;8.03;;;17.60;76.30;;;;;;4924789;29;20569;-42
2021/07/22 05:29:07;;;;;;;9.23;6.90;;;17.70;76.10;;;;;;4926541;29;20480;-39
2021/07/22 05:31:38;;;;;;;9.53;6.57;;;17.80;75.90;;;;;;4922919;29;20543;-40
2021/07/22 05:34:05;;;;;;;9.80;6.37;;;17.80;75.80;;;;;;4923647;29;20496;-39
2021/07/22 05:36:33;;;;;;;10.83;6.93;;;17.90;75.70;;;;;;4925333;29;20488;-41
2021/07/22 05:39:01;;;;;;;11.37;6.50;;;18.00;75.60;;;;;;4925771;29;20449;-40
2021/07/22 05:41:27;;;;;;;14.73;6.70;;;18.00;75.30;;;;;;4923367;29;20518;-42
2021/07/22 05:43:54;;;;;;;10.10;6.87;;;18.10;75.30;;;;;;4921995;29;20893;-40
2021/07/22 05:46:21;;;;;;;8.17;6.23;;;18.20;75.30;;;;;;4919997;29;20461;-41
2021/07/22 05:48:48;;;;;;;10.50;7.20;;;18.20;75.10;;;;;;4924457;29;20570;-41
2021/07/22 05:51:16;;;;;;;9.03;6.73;;;18.20;75.00;;;;;;4926705;29;20463;-40
2021/07/22 05:53:43;;;;;;;8.53;6.90;;;18.30;75.10;;;;;;4929381;29;20577;-41
2021/07/22 05:56:16;;;;;;;9.40;6.53;;;18.40;75.10;;;;;;4925946;29;20539;-40
2021/07/22 05:58:43;;;;;;;8.50;5.83;;;18.40;74.90;;;;;;4926251;29;20472;-40
2021/07/22 06:01:11;;;;;;;9.20;6.07;;;18.50;74.20;;;;;;4923151;29;20460;-42
2021/07/22 06:03:38;;;;;;;13.73;7.30;;;18.60;74.10;;;;;;4926198;29;23356;-42
2021/07/22 06:06:06;;;;;;;10.53;6.97;;;18.60;73.70;;;;;;4925613;29;20467;-41
2021/07/22 06:08:34;;;;;;;9.03;6.30;;;18.70;73.60;;;;;;4924264;29;20802;-39
2021/07/22 06:11:08;;;;;;;11.10;7.13;;;18.80;73.60;;;;;;4919342;29;20886;-41
2021/07/22 06:13:35;;;;;;;9.37;7.50;;;18.90;73.60;;;;;;4924488;29;20499;-41
2021/07/22 06:16:07;;;;;;;9.97;7.23;;;19.00;73.20;;;;;;4928751;29;20514;-41
2021/07/22 06:18:34;;;;;;;10.93;6.83;;;19.10;72.50;;;;;;4925169;29;20474;-41
2021/07/22 06:21:01;;;;;;;9.60;6.47;;;19.20;71.60;;;;;;4928355;29;20471;-41
2021/07/22 06:23:28;;;;;;;11.90;6.93;;;19.30;71.30;;;;;;4923303;29;20504;-42
2021/07/22 06:25:56;;;;;;;10.00;6.70;;;19.40;71.40;;;;;;4925450;29;20816;-42
2021/07/22 06:28:23;;;;;;;9.50;6.33;;;19.40;71.60;;;;;;4920777;29;20469;-41
2021/07/22 06:30:54;;;;;;;11.70;6.40;;;19.50;71.60;;;;;;4927404;29;20453;-42
2021/07/22 06:33:21;;;;;;;9.97;6.80;;;19.60;70.90;;;;;;4922304;29;20610;-40
2021/07/22 06:35:48;;;;;;;10.00;6.73;;;19.70;70.90;;;;;;4931125;29;20995;-41
2021/07/22 06:38:14;;;;;;;8.53;6.50;;;19.80;70.80;;;;;;4923199;29;21235;-42
2021/07/22 06:40:42;;;;;;;9.00;6.43;;;19.90;70.10;;;;;;4925727;29;20879;-41
2021/07/22 06:43:12;;;;;;;7.83;5.30;;;20.00;70.20;;;;;;4924917;29;20554;-41
2021/07/22 06:45:40;;;;;;;7.40;5.20;;;20.10;69.20;;;;;;4930900;29;20519;-41
2021/07/22 06:48:08;;;;;;;7.60;5.10;;;20.30;66.70;;;;;;4924900;29;20798;-41
2021/07/22 06:50:36;;;;;;;7.60;5.33;;;20.40;66.30;;;;;;4922425;29;20551;-41
2021/07/22 06:53:04;;;;;;;8.60;6.23;;;20.50;65.70;;;;;;4926413;29;20532;-40
2021/07/22 06:55:34;;;;;;;9.80;5.83;;;20.60;65.30;;;;;;4923983;29;20452;-41
2021/07/22 06:58:08;;;;;;;8.30;5.50;;;20.80;64.80;;;;;;4926819;29;20507;-41
2021/07/22 07:00:36;;;;;;;9.30;5.60;;;20.90;64.60;;;;;;4925977;29;20460;-41
2021/07/22 07:03:07;;;;;;;10.03;6.50;;;21.00;64.90;;;;;;4927340;29;20458;-40
2021/07/22 07:05:34;;;;;;;9.07;6.47;;;21.20;64.60;;;;;;4926579;29;20522;-42
2021/07/22 07:08:02;;;;;;;8.90;5.60;;;21.30;64.40;;;;;;4923423;29;20542;-41
2021/07/22 07:10:29;;;;;;;8.40;6.10;;;21.40;64.30;;;;;;4928108;29;20468;-42
2021/07/22 07:12:57;;;;;;;10.60;6.20;;;21.50;63.40;;;;;;4924588;29;20527;-42
2021/07/22 07:15:24;;;;;;;10.30;6.37;;;21.70;62.90;;;;;;4928138;29;20500;-41
2021/07/22 07:17:51;;;;;;;10.53;6.50;;;21.80;63.30;;;;;;4930705;29;20455;-40
2021/07/22 07:20:18;;;;;;;9.10;6.30;;;21.90;63.10;;;;;;4929874;29;20463;-41
2021/07/22 07:22:45;;;;;;;9.37;6.10;;;22.10;62.00;;;;;;4922556;29;20457;-41
2021/07/22 07:25:12;;;;;;;8.20;6.47;;;22.20;61.80;;;;;;4926087;29;20472;-39
2021/07/22 07:27:40;;;;;;;7.30;5.70;;;22.40;61.60;;;;;;4922909;29;20544;-40
2021/07/22 07:30:08;;;;;;;15.07;7.33;;;22.50;61.10;;;;;;4923238;29;20531;-41
2021/07/22 07:32:35;;;;;;;8.73;6.23;;;22.70;60.60;;;;;;4926510;29;20475;-42
2021/07/22 07:35:03;;;;;;;8.50;5.83;;;22.80;60.80;;;;;;4922293;29;20488;-42
2021/07/22 07:37:30;;;;;;;8.60;6.40;;;22.90;60.30;;;;;;4931107;29;20514;-42
2021/07/22 07:39:57;;;;;;;8.57;6.43;;;23.00;60.10;;;;;;4936727;29;20554;-41
2021/07/22 07:42:24;;;;;;;10.40;6.27;;;23.10;59.70;;;;;;4930048;29;20488;-40
2021/07/22 07:44:52;;;;;;;7.73;6.07;;;23.30;59.80;;;;;;4924672;29;20554;-42
2021/07/22 07:47:19;;;;;;;13.70;6.90;;;23.40;60.00;;;;;;4928034;29;20467;-40
2021/07/22 07:49:46;;;;;;;9.77;6.30;;;23.50;59.20;;;;;;4928085;29;20473;-40
2021/07/22 07:52:13;;;;;;;8.23;6.70;;;23.70;58.70;;;;;;4929875;29;20565;-41
2021/07/22 07:54:41;;;;;;;8.27;6.10;;;23.80;58.60;;;;;;4932279;29;20490;-41
2021/07/22 07:57:08;;;;;;;10.77;6.43;;;23.90;57.10;;;;;;4928171;29;20464;-41
2021/07/22 07:59:34;;;;;;;6.73;5.90;;;24.10;57.10;;;;;;4932582;29;20455;-42
2021/07/22 08:02:01;;;;;;;7.90;6.10;;;24.20;57.20;;;;;;4927720;29;20948;-41
2021/07/22 08:04:28;;;;;;;8.10;5.90;;;24.30;57.40;;;;;;4928261;28;20467;-40
2021/07/22 08:06:55;;;;;;;8.90;6.20;;;24.40;56.90;;;;;;4931447;29;20886;-42
2021/07/22 08:09:22;;;;;;;7.57;6.37;;;24.60;55.90;;;;;;4921835;29;20464;-43
2021/07/22 08:11:49;;;;;;;12.70;6.77;;;24.70;55.20;;;;;;4930390;29;20463;-42
2021/07/22 08:14:15;;;;;;;6.80;5.70;;;24.80;55.20;;;;;;4925275;29;20583;-42
2021/07/22 08:16:45;;;;;;;8.43;6.40;;;24.90;55.00;;;;;;4929864;29;20960;-41
2021/07/22 08:19:12;;;;;;;6.80;6.10;;;25.00;55.10;;;;;;4928749;29;20469;-43
2021/07/22 08:21:39;;;;;;;7.10;6.00;;;25.20;54.30;;;;;;4925794;29;20880;-42
2021/07/22 08:24:08;;;;;;;8.80;5.30;;;25.30;54.00;;;;;;4923548;29;20459;-41
2021/07/22 08:26:35;;;;;;;7.73;6.00;;;25.40;52.70;;;;;;4926932;29;20459;-42
2021/07/22 08:29:04;;;;;;;8.03;6.43;;;25.50;52.90;;;;;;4927536;29;20684;-41
2021/07/22 08:31:33;;;;;;;6.87;5.43;;;25.60;52.50;;;;;;4929248;29;20460;-43
2021/07/22 08:34:01;;;;;;;8.60;6.30;;;25.70;52.20;;;;;;4934292;29;20518;-41
2021/07/22 08:36:28;;;;;;;7.37;5.90;;;25.90;51.40;;;;;;4926774;29;20480;-40
2021/07/22 08:38:56;;;;;;;8.37;5.90;;;26.00;51.20;;;;;;4933399;29;20444;-43
2021/07/22 08:41:24;;;;;;;8.23;6.63;;;26.10;50.10;;;;;;4929419;29;20448;-42
2021/07/22 08:43:52;;;;;;;6.43;5.80;;;26.20;50.50;;;;;;4926374;29;20471;-39
2021/07/22 08:46:21;;;;;;;8.10;6.37;;;26.30;50.80;;;;;;4926056;29;20452;-43
2021/07/22 08:48:50;;;;;;;8.47;6.00;;;26.50;50.50;;;;;;4924365;29;20985;-43
2021/07/22 08:51:20;;;;;;;7.67;6.23;;;26.50;50.30;;;;;;4918326;29;20806;-43
2021/07/22 08:53:49;;;;;;;6.70;5.60;;;26.70;49.90;;;;;;4926662;29;20828;-43
2021/07/22 08:56:17;;;;;;;8.00;6.33;;;26.70;50.10;;;;;;4928451;29;20538;-43
2021/07/22 08:58:46;;;;;;;7.47;5.97;;;26.80;49.30;;;;;;4933623;29;20479;-42
2021/07/22 09:01:15;;;;;;;9.23;6.00;;;26.90;48.40;;;;;;4930474;29;20968;-43
2021/07/22 09:03:43;;;;;;;7.67;5.50;;;27.00;47.90;;;;;;4933868;29;20495;-43
2021/07/22 09:06:27;;;;;;;6.60;5.67;;;27.20;47.70;;;;;;4928359;29;21049;-42
2021/07/22 09:09:15;;;;;;;8.20;5.80;;;27.30;46.60;;;;;;4927969;29;20466;-42
2021/07/22 09:12:00;;;;;;;8.13;5.70;;;27.50;45.90;;;;;;4916099;29;20990;-42
2021/07/22 09:14:29;;;;;;;46.53;10.73;;;27.70;45.70;;;;;;4920787;29;21508;-42
2021/07/22 09:16:57;;;;;;;10.67;5.90;;;28.00;45.20;;;;;;4924956;29;20286;-42
2021/07/22 09:19:36;;;;;;;7.80;6.10;;;28.20;45.10;;;;;;4925433;29;20219;-42
2021/07/22 09:22:08;;;;;;;7.53;5.80;;;28.40;44.70;;;;;;4924456;29;20207;-42
2021/07/22 09:24:48;;;;;;;6.47;5.63;;;28.70;44.40;;;;;;4923424;29;20588;-42
2021/07/22 09:27:33;;;;;;;9.70;5.77;;;29.00;43.40;;;;;;4918605;29;20335;-41
2021/07/22 09:30:02;;;;;;;7.57;6.00;;;29.20;43.40;;;;;;4923603;29;20239;-42
2021/07/22 09:32:31;;;;;;;6.88;5.53;;;29.50;42.90;;;;;;4899719;29;20212;-40
2021/07/22 09:35:11;;;;;;;7.07;6.13;;;29.80;42.90;;;;;;4923312;29;20635;-39
2021/07/22 09:37:49;;;;;;;8.48;6.40;;;30.10;42.30;;;;;;4928356;29;22045;-40
2021/07/22 09:40:29;;;;;;;7.65;6.40;;;30.30;42.30;;;;;;4923641;29;20716;-42
2021/07/22 09:42:58;;;;;;;10.20;7.07;;;30.70;41.30;;;;;;4923863;29;20662;-41
2021/07/22 09:45:35;;;;;;;11.68;7.07;;;31.00;40.10;;;;;;4924287;29;20240;-42
2021/07/22 09:48:12;;;;;;;9.05;6.78;;;31.30;38.90;;;;;;4927988;29;20984;-41
2021/07/22 09:50:44;;;;;;;10.57;7.85;;;31.60;38.20;;;;;;4922673;29;20211;-40
2021/07/22 09:53:14;;;;;;;8.13;6.80;;;31.90;37.20;;;;;;4925778;29;20417;-42
2021/07/22 09:55:43;;;;;;;9.75;6.90;;;32.20;36.80;;;;;;4923130;29;20242;-41
2021/07/22 09:58:13;;;;;;;12.82;8.50;;;32.50;36.50;;;;;;4928486;29;20557;-41
2021/07/22 10:00:46;;;;;;;10.55;7.30;;;32.80;35.70;;;;;;4919244;29;20216;-42
2021/07/22 10:03:15;;;;;;;8.73;6.55;;;33.10;35.30;;;;;;4921978;29;20266;-41
2021/07/22 10:06:04;;;;;;;8.80;6.28;;;33.40;35.30;;;;;;4925833;29;20213;-41
2021/07/22 10:08:35;;;;;;;8.10;7.10;;;33.70;34.60;;;;;;4924282;29;20592;-41
2021/07/22 10:11:04;;;;;;;13.18;7.90;;;33.90;33.60;;;;;;4926367;29;20208;-41
2021/07/22 10:13:36;;;;;;;7.25;6.55;;;34.00;34.00;;;;;;4919884;29;20239;-42
2021/07/22 10:16:07;;;;;;;8.45;7.47;;;34.20;33.30;;;;;;4924640;29;20611;-41
2021/07/22 10:18:40;;;;;;;8.02;6.72;;;34.30;33.30;;;;;;4924114;29;20661;-41
2021/07/22 10:21:07;;;;;;;8.80;6.43;;;34.40;33.80;;;;;;4926772;29;20295;-42
2021/07/22 10:23:35;;;;;;;9.15;7.60;;;34.50;33.60;;;;;;4928345;29;20984;-41
2021/07/22 10:26:02;;;;;;;13.77;8.07;;;34.70;32.70;;;;;;4928866;29;20212;-39
2021/07/22 10:28:29;;;;;;;10.10;8.18;;;34.90;32.30;;;;;;4921404;29;20204;-42
2021/07/22 10:30:57;;;;;;;8.70;7.05;;;35.00;32.50;;;;;;4924936;29;20214;-42
2021/07/22 10:33:25;;;;;;;8.57;7.30;;;35.00;32.60;;;;;;4923556;29;20218;-43
2021/07/22 10:35:56;;;;;;;9.55;7.30;;;35.10;32.80;;;;;;4926919;29;20455;-43
2021/07/22 10:38:27;;;;;;;7.95;6.38;;;35.20;32.90;;;;;;4927221;29;20235;-42
2021/07/22 10:41:03;;;;;;;8.68;7.32;;;35.10;32.90;;;;;;4924645;29;20208;-41
2021/07/22 10:43:39;;;;;;;8.65;7.05;;;35.10;33.10;;;;;;4920837;29;20290;-42
2021/07/22 10:46:13;;;;;;;8.18;7.28;;;35.00;32.70;;;;;;4924275;29;20672;-42
2021/07/22 10:48:41;;;;;;;7.68;6.88;;;34.70;33.30;;;;;;4923029;29;20221;-42
2021/07/22 10:51:12;;;;;;;9.40;7.80;;;34.10;33.40;;;;;;4923127;29;20243;-41
2021/07/22 10:53:48;;;;;;;8.38;7.25;;;33.50;34.30;;;;;;4923579;29;20229;-42
2021/07/22 10:56:22;;;;;;;8.80;6.95;;;32.80;35.70;;;;;;4923012;29;20696;-40
2021/07/22 10:58:53;;;;;;;10.40;7.60;;;32.20;36.20;;;;;;4926432;29;20243;-42
2021/07/22 11:01:42;;;;;;;7.80;7.03;;;31.80;36.80;;;;;;4924885;29;20244;-42
2021/07/22 11:04:36;;;;;;;9.07;7.32;;;31.40;37.90;;;;;;4922635;29;21040;-42
2021/07/22 11:07:04;;;;;;;9.00;7.25;;;31.00;38.50;;;;;;4920924;29;20577;-42
2021/07/22 11:09:48;;;;;;;10.30;7.90;;;30.70;38.60;;;;;;4923953;29;20212;-42
2021/07/22 11:12:36;;;;;;;8.63;7.25;;;30.50;39.20;;;;;;4922141;29;20249;-42
2021/07/22 11:15:07;;;;;;;9.88;8.43;;;30.30;39.60;;;;;;4922224;29;20454;-41
2021/07/22 11:17:38;;;;;;;9.27;7.57;;;30.20;39.50;;;;;;4927925;29;20230;-43
2021/07/22 11:20:19;;;;;;;9.63;7.35;;;30.10;39.50;;;;;;4924799;29;20203;-42
2021/07/22 11:22:48;;;;;;;8.52;6.68;;;30.00;39.50;;;;;;4928828;29;20310;-41
2021/07/22 11:25:17;;;;;;;8.60;6.57;;;29.90;39.90;;;;;;4924550;29;20608;-41
2021/07/22 11:27:44;;;;;;;8.35;7.25;;;29.80;40.60;;;;;;4928214;29;20211;-42
2021/07/22 11:30:12;;;;;;;9.13;7.30;;;29.70;40.70;;;;;;4924211;29;20369;-42
2021/07/22 11:32:39;;;;;;;10.80;6.70;;;29.60;41.30;;;;;;4922890;29;20225;-42
2021/07/22 11:35:06;;;;;;;8.70;6.90;;;29.50;40.70;;;;;;4926721;29;20238;-42
2021/07/22 11:37:34;;;;;;;10.52;7.65;;;29.40;40.90;;;;;;4927621;29;20235;-42
2021/07/22 11:40:11;;;;;;;9.45;7.45;;;29.40;41.00;;;;;;4928488;29;20206;-42
2021/07/22 11:42:48;;;;;;;8.07;7.00;;;29.40;41.20;;;;;;4924009;29;20206;-42
2021/07/22 11:45:16;;;;;;;9.10;7.40;;;29.20;41.20;;;;;;4924569;29;20208;-42
2021/07/22 11:47:43;;;;;;;12.60;7.45;;;29.20;42.00;;;;;;4926486;29;20212;-42
2021/07/22 11:50:10;;;;;;;8.00;6.75;;;29.20;41.90;;;;;;4926940;29;20254;-42
2021/07/22 11:52:37;;;;;;;8.02;6.50;;;29.20;42.10;;;;;;4923764;29;20299;-42
2021/07/22 11:55:08;;;;;;;9.48;6.35;;;29.20;42.40;;;;;;4925687;29;20231;-41
2021/07/22 11:57:38;;;;;;;8.95;7.15;;;29.10;42.70;;;;;;4928232;29;20218;-42
2021/07/22 12:00:23;;;;;;;8.75;6.72;;;29.10;43.00;;;;;;4926699;29;20211;-41
2021/07/22 12:02:54;;;;;;;9.57;6.78;;;28.90;42.20;;;;;;4926928;29;20521;-42
2021/07/22 12:05:24;;;;;;;9.47;7.00;;;28.70;42.30;;;;;;4929511;29;20239;-42
2021/07/22 12:07:53;;;;;;;10.50;7.43;;;28.50;43.60;;;;;;4931796;29;20989;-42
2021/07/22 12:10:27;;;;;;;7.77;6.90;;;28.40;43.80;;;;;;4923147;29;20212;-40
2021/07/22 12:13:03;;;;;;;8.97;6.80;;;28.30;44.30;;;;;;4924440;29;20307;-42
2021/07/22 12:15:31;;;;;;;9.00;7.17;;;28.20;43.70;;;;;;4927747;29;20255;-41
2021/07/22 12:17:58;;;;;;;8.70;7.20;;;28.20;43.80;;;;;;4925829;29;20208;-40
2021/07/22 12:20:25;;;;;;;9.10;7.10;;;28.20;43.50;;;;;;4925787;29;20203;-41
2021/07/22 12:22:52;;;;;;;11.57;6.87;;;28.20;43.10;;;;;;4923067;29;20691;-41
2021/07/22 12:25:19;;;;;;;7.63;6.83;;;28.20;43.20;;;;;;4926831;29;20223;-41
2021/07/22 12:27:49;;;;;;;8.97;7.70;;;28.30;43.40;;;;;;4926743;29;20211;-42
2021/07/22 12:30:22;;;;;;;9.63;6.40;;;28.30;43.20;;;;;;4925585;29;20310;-41
2021/07/22 12:32:55;;;;;;;11.10;7.07;;;28.40;43.10;;;;;;4925018;29;20572;-41
2021/07/22 12:35:34;;;;;;;9.33;7.17;;;28.40;43.60;;;;;;4928208;29;20267;-42
2021/07/22 12:38:24;;;;;;;10.97;7.13;;;28.40;44.00;;;;;;4928580;29;20716;-42
2021/07/22 12:40:58;;;;;;;8.63;7.13;;;28.40;43.90;;;;;;4927054;29;20215;-41
2021/07/22 12:43:31;;;;;;;8.90;7.27;;;28.40;43.60;;;;;;4929415;29;20204;-41
2021/07/22 12:46:14;;;;;;;8.33;7.20;;;28.40;44.00;;;;;;4923477;29;20235;-42
2021/07/22 12:48:44;;;;;;;8.30;7.50;;;28.30;43.80;;;;;;4927569;29;20216;-41
2021/07/22 12:51:22;;;;;;;10.10;6.73;;;28.20;43.80;;;;;;4929753;29;20303;-41
2021/07/22 12:53:49;;;;;;;7.20;6.50;;;28.20;43.20;;;;;;4924738;29;20210;-41